createdAt,value
2023-10-28T00:00:15.990Z,16.42
2023-10-28T00:02:44.324Z,16.35
2023-10-28T00:05:12.726Z,16.26
2023-10-28T00:07:43.091Z,16.23
2023-10-28T00:10:11.912Z,16.24
2023-10-28T00:12:40.447Z,16.21
2023-10-28T00:15:10.014Z,16.16
2023-10-28T00:17:39.744Z,16.10
2023-10-28T00:20:08.549Z,16.08
2023-10-28T00:22:36.879Z,16.03
2023-10-28T00:25:07.085Z,15.99
2023-10-28T00:27:35.679Z,15.94
2023-10-28T00:30:04.362Z,15.90
2023-10-28T00:32:33.109Z,15.86
2023-10-28T00:35:01.674Z,15.84
2023-10-28T00:37:30.088Z,15.81
2023-10-28T00:39:58.635Z,15.72
2023-10-28T00:42:27.519Z,15.67
2023-10-28T00:44:58.814Z,15.61
2023-10-28T00:47:27.314Z,15.56
2023-10-28T00:49:55.889Z,15.50
2023-10-28T00:52:28.602Z,15.46
2023-10-28T00:54:58.674Z,15.44
2023-10-28T00:57:29.011Z,15.40
2023-10-28T00:59:58.073Z,15.32
2023-10-28T01:02:27.271Z,15.28
2023-10-28T01:04:56.277Z,15.24
2023-10-28T01:07:24.589Z,15.22
2023-10-28T01:09:52.968Z,15.20
2023-10-28T01:12:23.252Z,15.13
2023-10-28T01:14:52.198Z,15.06
2023-10-28T01:17:23.297Z,15.05
2023-10-28T01:19:51.547Z,15.03
2023-10-28T01:22:20.735Z,14.96
2023-10-28T01:24:49.257Z,14.94
2023-10-28T01:27:18.169Z,14.89
2023-10-28T01:29:47.599Z,14.86
2023-10-28T01:32:16.993Z,14.85
2023-10-28T01:34:53.845Z,14.83
2023-10-28T01:37:23.233Z,14.80
2023-10-28T01:39:54.155Z,14.78
2023-10-28T01:42:24.238Z,14.75
2023-10-28T01:44:52.918Z,14.74
2023-10-28T01:47:21.522Z,14.73
2023-10-28T01:49:50.424Z,14.70
2023-10-28T01:52:18.725Z,14.70
2023-10-28T01:54:46.968Z,14.64
2023-10-28T01:57:15.364Z,14.60
2023-10-28T01:59:43.602Z,14.63
2023-10-28T02:02:11.860Z,14.63
2023-10-28T02:04:40.353Z,14.64
2023-10-28T02:07:08.591Z,14.60
2023-10-28T02:09:36.856Z,14.59
2023-10-28T02:12:06.314Z,14.54
2023-10-28T02:14:34.652Z,14.54
2023-10-28T02:17:02.937Z,14.52
2023-10-28T02:19:31.958Z,14.50
2023-10-28T02:22:12.718Z,14.49
2023-10-28T02:24:43.355Z,14.47
2023-10-28T02:27:12.964Z,14.41
2023-10-28T02:29:41.323Z,14.40
2023-10-28T02:32:11.524Z,14.37
2023-10-28T02:34:39.900Z,14.36
2023-10-28T02:37:08.093Z,14.37
2023-10-28T02:39:36.727Z,14.35
2023-10-28T02:42:06.283Z,14.32
2023-10-28T02:44:35.130Z,14.28
2023-10-28T02:47:03.639Z,14.25
2023-10-28T02:49:32.380Z,14.20
2023-10-28T02:52:00.651Z,14.20
2023-10-28T02:54:28.907Z,14.19
2023-10-28T02:56:57.154Z,14.17
2023-10-28T02:59:25.394Z,14.15
2023-10-28T03:01:53.670Z,14.10
2023-10-28T03:04:22.445Z,14.07
2023-10-28T03:06:50.680Z,14.04
2023-10-28T03:09:19.414Z,14.02
2023-10-28T03:11:47.785Z,14.00
2023-10-28T03:14:16.076Z,13.97
2023-10-28T03:16:46.631Z,13.94
2023-10-28T03:19:14.944Z,13.94
2023-10-28T03:21:43.228Z,13.94
2023-10-28T03:24:11.777Z,13.91
2023-10-28T03:26:40.536Z,13.88
2023-10-28T03:29:08.847Z,13.82
2023-10-28T03:31:37.191Z,13.76
2023-10-28T03:34:07.592Z,13.73
2023-10-28T03:36:35.835Z,13.68
2023-10-28T03:39:04.152Z,13.64
2023-10-28T03:41:32.380Z,13.58
2023-10-28T03:44:00.652Z,13.52
2023-10-28T03:46:28.960Z,13.48
2023-10-28T03:48:57.194Z,13.44
2023-10-28T03:51:25.526Z,13.41
2023-10-28T03:53:53.840Z,13.36
2023-10-28T03:56:22.115Z,13.33
2023-10-28T03:58:50.443Z,13.29
2023-10-28T04:01:19.159Z,13.26
2023-10-28T04:03:47.519Z,13.24
2023-10-28T04:06:15.798Z,13.23
2023-10-28T04:08:44.048Z,13.20
2023-10-28T04:11:12.501Z,13.16
2023-10-28T04:13:43.826Z,13.13
2023-10-28T04:16:12.236Z,13.08
2023-10-28T04:18:41.756Z,13.08
2023-10-28T04:21:10.708Z,13.07
2023-10-28T04:23:38.975Z,13.03
2023-10-28T04:26:07.434Z,13.00
2023-10-28T04:28:35.731Z,13.03
2023-10-28T04:31:04.208Z,13.00
2023-10-28T04:33:33.069Z,12.97
2023-10-28T04:36:01.345Z,12.93
2023-10-28T04:38:30.964Z,12.88
2023-10-28T04:40:59.370Z,12.83
2023-10-28T04:43:27.710Z,12.78
2023-10-28T04:45:56.120Z,12.72
2023-10-28T04:48:24.624Z,12.70
2023-10-28T04:50:52.848Z,12.62
2023-10-28T04:53:21.107Z,12.57
2023-10-28T04:55:49.366Z,12.55
2023-10-28T04:58:17.979Z,12.52
2023-10-28T05:00:47.130Z,12.47
2023-10-28T05:03:15.504Z,12.44
2023-10-28T05:05:43.787Z,12.40
2023-10-28T05:08:12.066Z,12.37
2023-10-28T05:10:40.428Z,12.33
2023-10-28T05:13:08.688Z,12.28
2023-10-28T05:15:36.892Z,12.25
2023-10-28T05:18:05.472Z,12.21
2023-10-28T05:20:35.942Z,12.20
2023-10-28T05:23:04.323Z,12.17
2023-10-28T05:25:32.716Z,12.17
2023-10-28T05:28:01.553Z,12.14
2023-10-28T05:30:29.798Z,12.12
2023-10-28T05:32:58.038Z,12.09
2023-10-28T05:35:26.268Z,12.03
2023-10-28T05:37:54.513Z,11.98
2023-10-28T05:40:22.889Z,11.95
2023-10-28T05:42:51.234Z,11.91
2023-10-28T05:45:20.537Z,11.89
2023-10-28T05:47:49.594Z,11.89
2023-10-28T05:50:19.733Z,11.90
2023-10-28T05:52:48.012Z,11.90
2023-10-28T05:55:16.314Z,11.90
2023-10-28T05:57:45.838Z,11.89
2023-10-28T06:00:15.285Z,11.84
2023-10-28T06:02:44.556Z,11.85
2023-10-28T06:05:12.915Z,11.84
2023-10-28T06:07:43.585Z,11.85
2023-10-28T06:10:12.730Z,11.86
2023-10-28T06:12:41.008Z,11.86
2023-10-28T06:15:10.057Z,11.87
2023-10-28T06:17:38.581Z,11.85
2023-10-28T06:20:07.554Z,11.79
2023-10-28T06:22:36.094Z,11.75
2023-10-28T06:25:06.348Z,11.71
2023-10-28T06:27:35.583Z,11.67
2023-10-28T06:30:04.522Z,11.65
2023-10-28T06:32:32.836Z,11.61
2023-10-28T06:35:01.138Z,11.58
2023-10-28T06:37:29.413Z,11.54
2023-10-28T06:39:57.628Z,11.51
2023-10-28T06:42:26.043Z,11.50
2023-10-28T06:44:54.996Z,11.43
2023-10-28T06:47:23.350Z,11.38
2023-10-28T06:49:53.267Z,11.34
2023-10-28T06:52:21.502Z,11.30
2023-10-28T06:54:49.680Z,11.31
2023-10-28T06:57:17.983Z,11.31
2023-10-28T06:59:46.410Z,11.30
2023-10-28T07:02:14.963Z,11.31
2023-10-28T07:04:43.738Z,11.31
2023-10-28T07:07:16.338Z,11.29
2023-10-28T07:09:45.097Z,11.27
2023-10-28T07:12:13.522Z,11.22
2023-10-28T07:14:41.904Z,11.17
2023-10-28T07:17:13.192Z,11.14
2023-10-28T07:19:41.561Z,11.15
2023-10-28T07:22:09.909Z,11.12
2023-10-28T07:24:38.146Z,11.08
2023-10-28T07:27:06.809Z,11.05
2023-10-28T07:29:35.033Z,11.02
2023-10-28T07:32:04.558Z,10.99
2023-10-28T07:34:33.424Z,10.98
2023-10-28T07:37:02.213Z,10.91
2023-10-28T07:39:30.432Z,10.88
2023-10-28T07:41:58.668Z,10.86
2023-10-28T07:44:27.130Z,10.80
2023-10-28T07:46:56.074Z,10.81
2023-10-28T07:49:24.733Z,10.80
2023-10-28T07:51:52.984Z,10.77
2023-10-28T07:54:21.198Z,10.78
2023-10-28T07:56:49.442Z,10.79
2023-10-28T07:59:17.787Z,10.75
2023-10-28T08:01:46.013Z,10.73
2023-10-28T08:04:15.932Z,10.74
2023-10-28T08:06:44.674Z,10.74
2023-10-28T08:09:13.099Z,10.73
2023-10-28T08:11:42.236Z,10.68
2023-10-28T08:14:10.545Z,10.68
2023-10-28T08:16:38.917Z,10.68
2023-10-28T08:19:08.959Z,10.65
2023-10-28T08:21:37.168Z,10.62
2023-10-28T08:24:05.961Z,10.61
2023-10-28T08:26:34.210Z,10.59
2023-10-28T08:29:02.525Z,10.56
2023-10-28T08:31:30.968Z,10.55
2023-10-28T08:33:59.240Z,10.51
2023-10-28T08:36:27.705Z,10.48
2023-10-28T08:38:57.070Z,10.44
2023-10-28T08:41:26.522Z,10.45
2023-10-28T08:44:01.895Z,10.47
2023-10-28T08:46:31.244Z,10.45
2023-10-28T08:49:01.220Z,10.44
2023-10-28T08:51:29.595Z,10.43
2023-10-28T08:54:01.003Z,10.40
2023-10-28T08:56:30.845Z,10.41
2023-10-28T08:58:59.115Z,10.40
2023-10-28T09:01:29.426Z,10.37
2023-10-28T09:04:02.957Z,10.37
2023-10-28T09:06:31.314Z,10.33
2023-10-28T09:08:59.635Z,10.36
2023-10-28T09:11:28.733Z,10.33
2023-10-28T09:13:58.276Z,10.31
2023-10-28T09:16:26.524Z,10.28
2023-10-28T09:18:54.729Z,10.26
2023-10-28T09:21:22.956Z,10.25
2023-10-28T09:23:51.234Z,10.23
2023-10-28T09:26:20.241Z,10.20
2023-10-28T09:28:49.029Z,10.17
2023-10-28T09:31:26.393Z,10.18
2023-10-28T09:33:55.009Z,10.18
2023-10-28T09:36:23.651Z,10.18
2023-10-28T09:38:55.549Z,10.15
2023-10-28T09:41:24.035Z,10.12
2023-10-28T09:43:52.456Z,10.09
2023-10-28T09:46:33.481Z,10.09
2023-10-28T09:49:11.104Z,10.05
2023-10-28T09:51:42.674Z,10.04
2023-10-28T09:54:21.018Z,10.03
2023-10-28T09:56:54.082Z,10.01
2023-10-28T09:59:24.591Z,9.99
2023-10-28T10:02:03.423Z,9.93
2023-10-28T10:04:31.756Z,9.91
2023-10-28T10:07:00.425Z,9.91
2023-10-28T10:09:28.660Z,9.89
2023-10-28T10:11:59.519Z,9.86
2023-10-28T10:14:33.878Z,9.82
2023-10-28T10:17:21.010Z,9.77
2023-10-28T10:19:51.042Z,9.72
2023-10-28T10:22:20.627Z,9.67
2023-10-28T10:24:52.282Z,9.64
2023-10-28T10:27:36.346Z,9.62
2023-10-28T10:30:09.529Z,9.59
2023-10-28T10:32:50.435Z,9.56
2023-10-28T10:35:38.450Z,9.56
2023-10-28T10:38:09.093Z,9.53
2023-10-28T10:40:52.376Z,9.51
2023-10-28T10:43:22.496Z,9.51
2023-10-28T10:45:51.377Z,9.51
2023-10-28T10:48:20.370Z,9.48
2023-10-28T10:50:50.233Z,9.43
2023-10-28T10:53:18.483Z,9.37
2023-10-28T10:55:47.205Z,9.31
2023-10-28T10:58:15.648Z,9.29
2023-10-28T11:00:51.590Z,9.31
2023-10-28T11:03:20.158Z,9.33
2023-10-28T11:05:48.782Z,9.31
2023-10-28T11:08:17.300Z,9.27
2023-10-28T11:10:47.388Z,9.21
2023-10-28T11:13:15.692Z,9.19
2023-10-28T11:15:44.020Z,9.15
2023-10-28T11:18:12.272Z,9.14
2023-10-28T11:20:41.072Z,9.09
2023-10-28T11:23:09.375Z,9.08
2023-10-28T11:25:38.888Z,9.04
2023-10-28T11:28:12.044Z,8.99
2023-10-28T11:30:40.249Z,8.95
2023-10-28T11:33:10.719Z,8.90
2023-10-28T11:35:39.096Z,8.93
2023-10-28T11:38:08.146Z,8.91
2023-10-28T11:40:36.430Z,8.91
2023-10-28T11:43:07.575Z,8.90
2023-10-28T11:45:36.461Z,8.89
2023-10-28T11:48:05.156Z,8.86
2023-10-28T11:50:33.591Z,8.82
2023-10-28T11:53:02.076Z,8.78
2023-10-28T11:55:30.934Z,8.70
2023-10-28T11:57:59.146Z,8.68
2023-10-28T12:00:28.073Z,8.67
2023-10-28T12:02:56.418Z,8.65
2023-10-28T12:05:25.098Z,8.62
2023-10-28T12:07:53.356Z,8.60
2023-10-28T12:10:21.579Z,8.57
2023-10-28T12:12:49.937Z,8.54
2023-10-28T12:15:18.223Z,8.49
2023-10-28T12:17:49.710Z,8.43
2023-10-28T12:20:17.931Z,8.40
2023-10-28T12:22:46.200Z,8.37
2023-10-28T12:25:16.115Z,8.30
2023-10-28T12:27:46.093Z,8.24
2023-10-28T12:30:14.477Z,8.24
2023-10-28T12:32:42.776Z,8.24
2023-10-28T12:35:11.454Z,8.21
2023-10-28T12:37:39.720Z,8.21
2023-10-28T12:40:09.378Z,8.24
2023-10-28T12:42:38.471Z,8.24
2023-10-28T12:45:08.330Z,8.23
2023-10-28T12:47:36.600Z,8.19
2023-10-28T12:50:05.713Z,8.20
2023-10-28T12:52:34.330Z,8.18
2023-10-28T12:55:03.016Z,8.16
2023-10-28T12:57:31.239Z,8.18
2023-10-28T12:59:59.450Z,8.17
2023-10-28T13:02:27.810Z,8.16
2023-10-28T13:04:56.076Z,8.12
2023-10-28T13:07:24.288Z,8.10
2023-10-28T13:09:52.544Z,8.06
2023-10-28T13:12:21.078Z,8.02
2023-10-28T13:14:52.344Z,7.97
2023-10-28T13:17:21.542Z,7.95
2023-10-28T13:19:49.850Z,7.94
2023-10-28T13:22:18.294Z,7.94
2023-10-28T13:24:47.804Z,7.92
2023-10-28T13:27:16.003Z,7.88
2023-10-28T13:29:45.074Z,7.87
2023-10-28T13:32:13.465Z,7.88
2023-10-28T13:34:42.398Z,7.86
2023-10-28T13:37:11.796Z,7.80
2023-10-28T13:39:40.008Z,7.76
2023-10-28T13:42:08.770Z,7.72
2023-10-28T13:44:37.008Z,7.71
2023-10-28T13:47:06.372Z,7.71
2023-10-28T13:49:37.658Z,7.69
2023-10-28T13:52:06.323Z,7.66
2023-10-28T13:54:34.532Z,7.66
2023-10-28T13:57:02.909Z,7.68
2023-10-28T13:59:31.146Z,7.69
2023-10-28T14:02:00.365Z,7.66
2023-10-28T14:04:28.615Z,7.63
2023-10-28T14:06:57.969Z,7.63
2023-10-28T14:09:26.226Z,7.62
2023-10-28T14:11:54.468Z,7.61
2023-10-28T14:14:22.798Z,7.58
2023-10-28T14:16:53.847Z,7.53
2023-10-28T14:19:23.788Z,7.51
2023-10-28T14:21:51.996Z,7.52
2023-10-28T14:24:21.497Z,7.52
2023-10-28T14:26:51.392Z,7.50
2023-10-28T14:29:19.713Z,7.51
2023-10-28T14:31:47.972Z,7.51
2023-10-28T14:34:17.281Z,7.52
2023-10-28T14:36:45.607Z,7.48
2023-10-28T14:39:13.873Z,7.48
2023-10-28T14:41:42.270Z,7.45
2023-10-28T14:44:10.606Z,7.41
2023-10-28T14:46:39.236Z,7.40
2023-10-28T14:49:07.712Z,7.37
2023-10-28T14:51:35.982Z,7.39
2023-10-28T14:54:04.605Z,7.41
2023-10-28T14:56:33.402Z,7.43
2023-10-28T14:59:01.988Z,7.45
2023-10-28T15:01:31.334Z,7.46
2023-10-28T15:03:59.754Z,7.49
2023-10-28T15:06:28.050Z,7.53
2023-10-28T15:08:56.306Z,7.60
2023-10-28T15:11:24.853Z,7.66
2023-10-28T15:13:53.122Z,7.70
2023-10-28T15:16:21.541Z,7.74
2023-10-28T15:18:51.180Z,7.80
2023-10-28T15:21:19.450Z,7.84
2023-10-28T15:23:51.840Z,7.89
2023-10-28T15:26:21.262Z,7.93
2023-10-28T15:28:49.883Z,8.00
2023-10-28T15:31:18.770Z,8.08
2023-10-28T15:33:47.353Z,8.14
2023-10-28T15:36:16.877Z,8.21
2023-10-28T15:38:45.662Z,8.29
2023-10-28T15:41:14.041Z,8.42
2023-10-28T15:43:42.463Z,8.52
2023-10-28T15:46:15.941Z,8.64
2023-10-28T15:48:46.528Z,8.73
2023-10-28T15:51:20.634Z,8.83
2023-10-28T15:53:48.932Z,8.91
2023-10-28T15:56:20.790Z,9.01
2023-10-28T15:58:50.997Z,9.11
2023-10-28T16:01:20.042Z,9.21
2023-10-28T16:03:49.473Z,9.31
2023-10-28T16:06:18.100Z,9.39
2023-10-28T16:08:46.558Z,9.48
2023-10-28T16:11:14.876Z,9.59
2023-10-28T16:13:43.348Z,9.67
2023-10-28T16:16:13.865Z,9.73
2023-10-28T16:18:43.577Z,9.81
2023-10-28T16:21:11.933Z,9.88
2023-10-28T16:23:41.338Z,9.94
2023-10-28T16:26:09.751Z,9.99
2023-10-28T16:28:38.421Z,10.05
2023-10-28T16:31:09.310Z,10.14
2023-10-28T16:33:39.087Z,10.21
2023-10-28T16:36:08.374Z,10.28
2023-10-28T16:38:37.657Z,10.35
2023-10-28T16:41:07.289Z,10.45
2023-10-28T16:43:35.776Z,10.54
2023-10-28T16:46:06.294Z,10.60
2023-10-28T16:48:34.933Z,10.67
2023-10-28T16:51:04.937Z,10.74
2023-10-28T16:53:36.071Z,10.84
2023-10-28T16:56:11.388Z,10.92
2023-10-28T16:58:39.632Z,11.02
2023-10-28T17:01:09.971Z,11.10
2023-10-28T17:03:38.521Z,11.18
2023-10-28T17:06:07.361Z,11.27
2023-10-28T17:08:36.354Z,11.37
2023-10-28T17:11:05.362Z,11.44
2023-10-28T17:13:34.243Z,11.52
2023-10-28T17:16:02.566Z,11.63
2023-10-28T17:18:30.925Z,11.68
2023-10-28T17:20:59.908Z,11.69
2023-10-28T17:23:28.205Z,11.71
2023-10-28T17:25:56.482Z,11.75
2023-10-28T17:28:24.842Z,11.85
2023-10-28T17:30:54.023Z,11.95
2023-10-28T17:33:23.088Z,12.04
2023-10-28T17:35:51.427Z,12.18
2023-10-28T17:38:20.008Z,12.26
2023-10-28T17:40:48.346Z,12.34
2023-10-28T17:43:16.620Z,12.43
2023-10-28T17:45:45.154Z,12.51
2023-10-28T17:48:14.135Z,12.57
2023-10-28T17:50:42.635Z,12.64
2023-10-28T17:53:11.005Z,12.76
2023-10-28T17:55:39.671Z,12.86
2023-10-28T17:58:08.013Z,13.00
2023-10-28T18:00:36.458Z,13.11
2023-10-28T18:03:05.027Z,13.18
2023-10-28T18:05:33.445Z,13.23
2023-10-28T18:08:01.748Z,13.30
2023-10-28T18:10:29.993Z,13.38
2023-10-28T18:12:58.358Z,13.46
2023-10-28T18:15:27.111Z,13.52
2023-10-28T18:17:55.519Z,13.57
2023-10-28T18:20:24.303Z,13.70
2023-10-28T18:22:52.727Z,13.82
2023-10-28T18:25:21.864Z,13.89
2023-10-28T18:27:50.077Z,13.91
2023-10-28T18:30:18.587Z,13.98
2023-10-28T18:32:47.262Z,14.03
2023-10-28T18:35:15.979Z,14.11
2023-10-28T18:37:44.207Z,14.21
2023-10-28T18:40:14.523Z,14.31
2023-10-28T18:42:42.907Z,14.39
2023-10-28T18:45:11.629Z,14.50
2023-10-28T18:47:41.663Z,14.66
2023-10-28T18:50:10.775Z,14.80
2023-10-28T18:52:41.183Z,14.92
2023-10-28T18:55:10.157Z,14.99
2023-10-28T18:57:38.451Z,15.04
2023-10-28T19:00:12.926Z,15.13
2023-10-28T19:02:42.175Z,15.31
2023-10-28T19:05:10.924Z,15.45
2023-10-28T19:07:39.199Z,15.56
2023-10-28T19:10:08.870Z,15.67
2023-10-28T19:12:37.577Z,15.80
2023-10-28T19:15:06.526Z,15.86
2023-10-28T19:17:34.869Z,15.94
2023-10-28T19:20:03.579Z,16.05
2023-10-28T19:22:31.871Z,16.16
2023-10-28T19:25:01.259Z,16.21
2023-10-28T19:27:29.506Z,16.27
2023-10-28T19:29:57.860Z,16.41
2023-10-28T19:32:26.248Z,16.54
2023-10-28T19:34:54.949Z,16.72
2023-10-28T19:37:23.275Z,16.85
2023-10-28T19:39:51.522Z,16.93
2023-10-28T19:42:19.769Z,17.02
2023-10-28T19:44:48.750Z,17.08
2023-10-28T19:47:17.040Z,17.10
2023-10-28T19:49:46.108Z,17.24
2023-10-28T19:52:14.540Z,17.40
2023-10-28T19:54:43.160Z,17.54
2023-10-28T19:57:11.920Z,17.65
2023-10-28T19:59:40.291Z,17.77
2023-10-28T20:02:08.737Z,17.88
2023-10-28T20:04:37.276Z,17.97
2023-10-28T20:07:06.042Z,18.06
2023-10-28T20:09:34.579Z,18.13
2023-10-28T20:12:02.928Z,18.12
2023-10-28T20:14:31.316Z,18.21
2023-10-28T20:16:59.702Z,18.30
2023-10-28T20:19:28.170Z,18.34
2023-10-28T20:21:56.495Z,18.41
2023-10-28T20:24:24.743Z,18.47
2023-10-28T20:26:53.041Z,18.54
2023-10-28T20:29:21.306Z,18.56
2023-10-28T20:31:49.783Z,18.59
2023-10-28T20:34:19.068Z,18.67
2023-10-28T20:36:47.378Z,18.73
2023-10-28T20:39:17.885Z,18.76
2023-10-28T20:41:46.169Z,18.85
2023-10-28T20:44:14.513Z,18.97
2023-10-28T20:46:42.964Z,19.11
2023-10-28T20:49:11.320Z,19.23
2023-10-28T20:51:39.596Z,19.29
2023-10-28T20:54:08.116Z,19.33
2023-10-28T20:56:36.468Z,19.39
2023-10-28T20:59:04.940Z,19.45
2023-10-28T21:01:34.062Z,19.57
2023-10-28T21:04:02.679Z,19.68
2023-10-28T21:06:31.042Z,19.73
2023-10-28T21:08:59.432Z,19.76
2023-10-28T21:11:27.727Z,19.82
2023-10-28T21:13:55.979Z,19.84
2023-10-28T21:16:24.249Z,19.86
2023-10-28T21:18:52.597Z,19.92
2023-10-28T21:21:20.853Z,20.03
2023-10-28T21:23:49.225Z,20.19
2023-10-28T21:26:17.524Z,20.29
2023-10-28T21:28:45.753Z,20.43
2023-10-28T21:31:16.993Z,20.49
2023-10-28T21:33:45.455Z,20.59
2023-10-28T21:36:13.713Z,20.71
2023-10-28T21:38:42.179Z,20.79
2023-10-28T21:41:10.555Z,20.80
2023-10-28T21:43:38.956Z,20.80
2023-10-28T21:46:10.410Z,20.88
2023-10-28T21:48:39.682Z,21.03
2023-10-28T21:51:08.523Z,21.13
2023-10-28T21:53:37.835Z,21.19
2023-10-28T21:56:07.067Z,21.37
2023-10-28T21:58:38.412Z,21.45
2023-10-28T22:01:07.109Z,21.55
2023-10-28T22:03:35.545Z,21.63
2023-10-28T22:06:04.199Z,21.67
2023-10-28T22:08:34.957Z,21.69
2023-10-28T22:11:03.230Z,21.67
2023-10-28T22:13:32.743Z,21.69
2023-10-28T22:16:01.161Z,21.70
2023-10-28T22:18:29.791Z,21.74
2023-10-28T22:20:58.203Z,21.69
2023-10-28T22:23:26.883Z,21.68
2023-10-28T22:25:55.372Z,21.59
2023-10-28T22:28:24.205Z,21.48
2023-10-28T22:30:52.589Z,21.45
2023-10-28T22:33:20.973Z,21.47
2023-10-28T22:35:49.550Z,21.51
2023-10-28T22:38:17.922Z,21.51
2023-10-28T22:40:46.194Z,21.54
2023-10-28T22:43:14.596Z,21.51
2023-10-28T22:45:42.913Z,21.45
2023-10-28T22:48:11.331Z,21.36
2023-10-28T22:50:39.905Z,21.22
2023-10-28T22:53:10.941Z,21.06
2023-10-28T22:55:39.574Z,20.81
2023-10-28T22:58:09.161Z,20.60
2023-10-28T23:00:37.585Z,20.51
2023-10-28T23:03:09.489Z,20.41
2023-10-28T23:05:38.651Z,20.35
2023-10-28T23:08:07.898Z,20.26
2023-10-28T23:10:36.485Z,20.16
2023-10-28T23:13:04.811Z,20.09
2023-10-28T23:15:33.130Z,20.06
2023-10-28T23:18:01.490Z,19.97
2023-10-28T23:20:30.014Z,19.89
2023-10-28T23:22:58.341Z,19.78
2023-10-28T23:25:26.702Z,19.67
2023-10-28T23:27:55.407Z,19.57
2023-10-28T23:30:30.455Z,19.52
2023-10-28T23:33:01.532Z,19.49
2023-10-28T23:35:31.868Z,19.47
2023-10-28T23:38:01.856Z,19.44
2023-10-28T23:40:33.254Z,19.42
2023-10-28T23:43:02.135Z,19.42
2023-10-28T23:45:30.396Z,19.41
2023-10-28T23:47:59.059Z,19.40
2023-10-28T23:50:27.590Z,19.40
2023-10-28T23:52:56.732Z,19.40
2023-10-28T23:55:25.092Z,19.38
2023-10-28T23:57:53.399Z,19.36
